createdAt,value
2019-03-05T00:01:54.556Z,2.37
2019-03-05T00:04:20.693Z,3.17
2019-03-05T00:06:46.858Z,2.83
2019-03-05T00:09:17.369Z,3.37
2019-03-05T00:11:43.571Z,3.37
2019-03-05T00:14:09.611Z,3.80
2019-03-05T00:16:35.727Z,4.33
2019-03-05T00:19:01.820Z,2.90
2019-03-05T00:21:28.481Z,2.80
2019-03-05T00:23:57.958Z,3.43
2019-03-05T00:26:30.546Z,2.40
2019-03-05T00:29:11.463Z,2.73
2019-03-05T00:31:45.965Z,3.70
2019-03-05T00:34:28.072Z,3.37
2019-03-05T00:37:00.752Z,2.90
2019-03-05T00:39:34.370Z,3.27
2019-03-05T00:42:10.042Z,3.60
2019-03-05T00:44:39.920Z,3.93
2019-03-05T00:47:22.267Z,3.20
2019-03-05T00:50:01.459Z,3.70
2019-03-05T00:52:37.485Z,3.27
2019-03-05T00:55:38.375Z,4.60
2019-03-05T00:58:08.330Z,3.57
2019-03-05T01:00:47.050Z,6.07
2019-03-05T01:03:29.908Z,4.20
2019-03-05T01:06:24.699Z,5.03
2019-03-05T01:08:52.843Z,4.40
2019-03-05T01:11:20.065Z,4.40
2019-03-05T01:13:46.195Z,4.33
2019-03-05T01:16:14.605Z,4.60
2019-03-05T01:18:41.297Z,4.97
2019-03-05T01:21:09.546Z,4.87
2019-03-05T01:23:35.598Z,5.00
2019-03-05T01:26:01.721Z,4.90
2019-03-05T01:28:28.058Z,5.90
2019-03-05T01:31:12.583Z,5.53
2019-03-05T01:33:49.358Z,5.67
2019-03-05T01:36:20.062Z,6.23
2019-03-05T01:38:50.933Z,5.30
2019-03-05T01:41:17.164Z,6.17
2019-03-05T01:43:43.228Z,5.60
2019-03-05T01:46:09.236Z,6.57
2019-03-05T01:48:35.949Z,5.53
2019-03-05T01:51:02.358Z,7.17
2019-03-05T01:53:28.405Z,6.07
2019-03-05T01:55:54.469Z,6.53
2019-03-05T01:58:20.643Z,6.13
2019-03-05T02:00:46.817Z,5.93
2019-03-05T02:03:12.983Z,6.70
2019-03-05T02:05:39.155Z,5.87
2019-03-05T02:08:05.660Z,6.53
2019-03-05T02:10:32.112Z,6.13
2019-03-05T02:12:58.588Z,6.30
2019-03-05T02:15:24.739Z,6.27
2019-03-05T02:17:57.355Z,7.47
2019-03-05T02:20:24.573Z,6.60
2019-03-05T02:23:00.250Z,6.10
2019-03-05T02:25:48.318Z,6.80
2019-03-05T02:28:33.887Z,6.43
2019-03-05T02:31:09.288Z,6.63
2019-03-05T02:33:56.924Z,7.13
2019-03-05T02:36:35.867Z,7.90
2019-03-05T02:39:14.332Z,6.80
2019-03-05T02:41:50.281Z,8.10
2019-03-05T02:44:36.888Z,6.60
2019-03-05T02:47:10.318Z,8.47
2019-03-05T02:49:55.559Z,7.43
2019-03-05T02:52:31.313Z,7.67
2019-03-05T02:55:07.445Z,8.00
2019-03-05T02:57:34.539Z,8.33
2019-03-05T03:00:00.675Z,7.97
2019-03-05T03:05:23.106Z,7.73
2019-03-05T03:07:49.242Z,7.20
2019-03-05T03:10:18.280Z,8.90
2019-03-05T03:12:44.317Z,8.17
2019-03-05T03:15:11.833Z,6.73
2019-03-05T03:17:37.950Z,8.37
2019-03-05T03:20:07.342Z,8.03
2019-03-05T03:22:33.679Z,7.70
2019-03-05T03:24:59.705Z,8.07
2019-03-05T03:27:25.931Z,8.17
2019-03-05T03:29:51.939Z,7.90
2019-03-05T03:32:18.112Z,7.57
2019-03-05T03:34:44.275Z,8.23
2019-03-05T03:37:10.408Z,8.20
2019-03-05T03:39:36.466Z,8.63
2019-03-05T03:42:02.816Z,7.93
2019-03-05T03:44:28.887Z,7.43
2019-03-05T03:46:54.956Z,7.10
2019-03-05T03:49:21.118Z,8.30
2019-03-05T03:51:47.154Z,7.27
2019-03-05T03:54:13.287Z,6.80
2019-03-05T03:56:39.355Z,9.20
2019-03-05T03:59:05.494Z,7.40
2019-03-05T04:01:31.765Z,10.03
2019-03-05T04:03:58.042Z,7.63
2019-03-05T04:06:24.375Z,7.23
2019-03-05T04:08:50.499Z,7.90
2019-03-05T04:11:16.711Z,8.80
2019-03-05T04:13:42.807Z,8.90
2019-03-05T04:16:08.878Z,7.87
2019-03-05T04:18:34.899Z,7.13
2019-03-05T04:21:00.959Z,6.90
2019-03-05T04:23:26.962Z,7.43
2019-03-05T04:25:53.008Z,6.90
2019-03-05T04:28:19.036Z,7.90
2019-03-05T04:30:45.303Z,7.10
2019-03-05T04:33:11.415Z,8.43
2019-03-05T04:35:37.695Z,7.67
2019-03-05T04:38:03.829Z,6.93
2019-03-05T04:40:29.843Z,6.90
2019-03-05T04:42:55.959Z,7.03
2019-03-05T04:45:25.988Z,7.70
2019-03-05T04:47:52.018Z,7.90
2019-03-05T04:50:19.963Z,7.53
2019-03-05T04:52:45.993Z,7.87
2019-03-05T04:55:12.131Z,8.10
2019-03-05T04:57:38.152Z,9.00
2019-03-05T05:00:08.171Z,8.37
2019-03-05T05:02:34.298Z,8.03
2019-03-05T05:05:00.363Z,8.90
2019-03-05T05:07:26.472Z,8.20
2019-03-05T05:09:52.514Z,8.07
2019-03-05T05:12:18.632Z,7.37
2019-03-05T05:14:44.687Z,7.07
2019-03-05T05:17:10.676Z,7.07
2019-03-05T05:19:36.726Z,7.07
2019-03-05T05:22:02.753Z,7.33
2019-03-05T05:24:28.772Z,7.20
2019-03-05T05:26:54.803Z,7.00
2019-03-05T05:29:20.835Z,6.80
2019-03-05T05:31:46.876Z,7.10
2019-03-05T05:34:12.956Z,8.10
2019-03-05T05:36:38.995Z,7.33
2019-03-05T05:39:08.823Z,7.03
2019-03-05T05:41:34.894Z,7.60
2019-03-05T05:44:00.935Z,7.40
2019-03-05T05:46:26.942Z,6.90
2019-03-05T05:48:53.010Z,7.23
2019-03-05T05:51:19.076Z,7.47
2019-03-05T05:53:45.822Z,6.80
2019-03-05T05:56:11.946Z,6.93
2019-03-05T05:58:38.021Z,7.63
2019-03-05T06:01:06.145Z,6.97
2019-03-05T06:03:32.229Z,6.27
2019-03-05T06:05:58.403Z,7.03
2019-03-05T06:08:24.523Z,7.23
2019-03-05T06:10:52.764Z,5.60
2019-03-05T06:13:18.611Z,5.30
2019-03-05T06:15:44.824Z,6.27
2019-03-05T06:18:11.217Z,4.90
2019-03-05T06:20:37.657Z,5.10
2019-03-05T06:23:03.945Z,5.40
2019-03-05T06:25:29.977Z,5.27
2019-03-05T06:27:56.049Z,6.20
2019-03-05T06:30:27.662Z,5.77
2019-03-05T06:32:53.663Z,5.27
2019-03-05T06:35:19.760Z,5.30
2019-03-05T06:37:46.288Z,5.30
2019-03-05T06:40:18.615Z,5.47
2019-03-05T06:42:44.698Z,4.50
2019-03-05T06:45:16.276Z,5.40
2019-03-05T06:47:42.590Z,4.77
2019-03-05T06:50:10.789Z,6.60
2019-03-05T06:52:36.930Z,5.50
2019-03-05T06:55:06.032Z,6.10
2019-03-05T06:57:32.211Z,6.43
2019-03-05T06:59:58.306Z,5.70
2019-03-05T07:02:24.443Z,5.77
2019-03-05T07:04:56.564Z,5.57
2019-03-05T07:07:23.143Z,6.70
2019-03-05T07:09:56.074Z,6.20
2019-03-05T07:12:35.202Z,6.47
2019-03-05T07:15:31.110Z,6.43
2019-03-05T07:18:06.525Z,7.27
2019-03-05T07:20:36.518Z,6.63
2019-03-05T07:23:12.475Z,8.40
2019-03-05T07:25:38.499Z,5.53
2019-03-05T07:28:04.618Z,6.10
2019-03-05T07:30:30.727Z,5.03
2019-03-05T07:32:56.869Z,4.87
2019-03-05T07:35:23.468Z,5.10
2019-03-05T07:37:50.256Z,4.83
2019-03-05T07:40:16.413Z,4.87
2019-03-05T07:42:42.493Z,4.53
2019-03-05T07:45:10.036Z,4.80
2019-03-05T07:47:36.246Z,5.10
2019-03-05T07:50:05.036Z,3.97
2019-03-05T07:52:31.050Z,3.40
2019-03-05T07:54:57.103Z,4.10
2019-03-05T07:57:24.848Z,3.60
2019-03-05T07:59:51.132Z,4.13
2019-03-05T08:02:17.242Z,3.30
2019-03-05T08:04:43.375Z,4.10
2019-03-05T08:07:10.053Z,4.57
2019-03-05T08:09:36.887Z,3.60
2019-03-05T08:12:15.972Z,4.00
2019-03-05T08:15:02.886Z,3.40
2019-03-05T08:17:29.027Z,3.00
2019-03-05T08:19:55.049Z,3.00
2019-03-05T08:22:21.210Z,3.63
2019-03-05T08:24:47.261Z,2.90
2019-03-05T08:27:13.584Z,2.87
2019-03-05T08:29:39.999Z,2.70
2019-03-05T08:32:06.028Z,4.70
2019-03-05T08:34:32.174Z,3.07
2019-03-05T08:36:58.797Z,3.30
2019-03-05T08:39:24.931Z,4.60
2019-03-05T08:41:51.040Z,3.67
2019-03-05T08:44:17.117Z,2.70
2019-03-05T08:46:43.202Z,5.27
2019-03-05T08:49:09.234Z,3.80
2019-03-05T08:51:35.455Z,3.60
2019-03-05T08:54:01.499Z,4.00
2019-03-05T08:56:27.574Z,3.13
2019-03-05T08:58:53.619Z,3.10
2019-03-05T09:01:19.725Z,3.53
2019-03-05T09:03:45.985Z,5.97
2019-03-05T09:06:12.214Z,3.40
2019-03-05T09:08:38.626Z,4.13
2019-03-05T09:11:04.843Z,3.10
2019-03-05T09:13:32.977Z,3.17
2019-03-05T09:15:58.924Z,3.00
2019-03-05T09:18:25.393Z,2.80
2019-03-05T09:20:51.511Z,3.63
2019-03-05T09:23:17.620Z,3.87
2019-03-05T09:25:43.817Z,3.70
2019-03-05T09:28:09.975Z,3.30
2019-03-05T09:30:36.204Z,3.20
2019-03-05T09:33:02.232Z,3.50
2019-03-05T09:35:28.239Z,3.57
2019-03-05T09:37:54.318Z,3.67
2019-03-05T09:40:28.719Z,4.00
2019-03-05T09:42:55.518Z,3.73
2019-03-05T09:45:21.624Z,3.53
2019-03-05T09:47:47.764Z,3.97
2019-03-05T09:50:17.575Z,3.70
2019-03-05T09:52:54.430Z,3.97
2019-03-05T09:55:24.542Z,4.10
2019-03-05T09:57:54.762Z,4.20
2019-03-05T10:00:32.152Z,4.23
2019-03-05T10:02:58.434Z,3.67
2019-03-05T10:05:24.597Z,3.87
2019-03-05T10:07:50.853Z,3.90
2019-03-05T10:10:20.445Z,3.33
2019-03-05T10:12:46.761Z,3.33
2019-03-05T10:15:15.454Z,3.80
2019-03-05T10:17:41.736Z,3.40
2019-03-05T10:20:11.575Z,3.60
2019-03-05T10:22:39.170Z,3.77
2019-03-05T10:25:08.310Z,3.73
2019-03-05T10:27:34.764Z,3.20
2019-03-05T10:30:01.228Z,5.07
2019-03-05T10:32:27.269Z,3.90
2019-03-05T10:34:53.403Z,4.03
2019-03-05T10:37:19.514Z,4.50
2019-03-05T10:39:45.690Z,3.87
2019-03-05T10:42:11.844Z,4.40
2019-03-05T10:44:38.346Z,3.47
2019-03-05T10:47:04.458Z,3.70
2019-03-05T10:49:30.573Z,3.70
2019-03-05T10:51:58.801Z,4.10
2019-03-05T10:54:25.049Z,3.27
2019-03-05T10:56:51.150Z,3.17
2019-03-05T10:59:17.268Z,3.43
2019-03-05T11:01:46.298Z,3.50
2019-03-05T11:04:12.363Z,4.57
2019-03-05T11:06:39.106Z,3.70
2019-03-05T11:09:05.526Z,4.87
2019-03-05T11:11:31.791Z,3.90
2019-03-05T11:13:57.936Z,4.03
2019-03-05T11:16:30.753Z,4.07
2019-03-05T11:18:52.627Z,4.00
2019-03-05T11:21:18.687Z,2.80
2019-03-05T11:23:44.695Z,3.00
2019-03-05T11:26:10.724Z,2.90
2019-03-05T11:28:36.884Z,3.20
2019-03-05T11:31:04.513Z,3.80
2019-03-05T11:33:30.741Z,3.17
2019-03-05T11:35:56.908Z,5.20
2019-03-05T11:38:23.091Z,3.27
2019-03-05T11:40:49.219Z,3.17
2019-03-05T11:43:16.293Z,2.60
2019-03-05T11:45:43.023Z,2.57
2019-03-05T11:48:09.546Z,2.07
2019-03-05T11:50:35.918Z,2.80
2019-03-05T11:53:01.994Z,3.30
2019-03-05T11:55:28.742Z,2.80
2019-03-05T11:57:54.894Z,3.20
2019-03-05T12:00:32.012Z,2.73
2019-03-05T12:02:58.547Z,2.57
2019-03-05T12:05:24.625Z,3.10
2019-03-05T12:07:50.642Z,2.90
2019-03-05T12:10:20.310Z,2.67
2019-03-05T12:12:47.031Z,2.63
2019-03-05T12:15:16.060Z,2.37
2019-03-05T12:17:42.085Z,2.70
2019-03-05T12:20:10.710Z,2.17
2019-03-05T12:22:36.821Z,2.80
2019-03-05T12:25:06.794Z,2.57
2019-03-05T12:27:44.291Z,2.97
2019-03-05T12:30:14.199Z,3.80
2019-03-05T12:32:40.431Z,2.60
2019-03-05T12:35:08.816Z,2.87
2019-03-05T12:37:35.662Z,2.30
2019-03-05T12:40:01.693Z,2.60
2019-03-05T12:42:27.720Z,2.53
2019-03-05T12:44:54.484Z,2.20
2019-03-05T12:47:21.020Z,2.60
2019-03-05T12:49:47.134Z,2.37
2019-03-05T12:52:13.169Z,2.53
2019-03-05T12:54:39.674Z,2.23
2019-03-05T12:57:05.760Z,2.40
2019-03-05T12:59:31.866Z,2.00
2019-03-05T13:02:00.778Z,2.90
2019-03-05T13:04:26.962Z,1.90
2019-03-05T13:06:53.488Z,1.83
2019-03-05T13:09:20.103Z,1.90
2019-03-05T13:11:49.893Z,1.70
2019-03-05T13:14:17.319Z,1.77
2019-03-05T13:16:43.650Z,1.43
2019-03-05T13:19:10.934Z,1.67
2019-03-05T13:21:37.313Z,1.73
2019-03-05T13:24:03.476Z,1.73
2019-03-05T13:26:29.700Z,3.40
2019-03-05T13:28:58.927Z,3.27
2019-03-05T13:31:25.016Z,2.67
2019-03-05T13:33:51.069Z,1.97
2019-03-05T13:36:17.327Z,2.80
2019-03-05T13:38:45.182Z,2.50
2019-03-05T13:41:12.126Z,2.30
2019-03-05T13:43:39.708Z,2.00
2019-03-05T13:46:05.938Z,1.60
2019-03-05T13:48:57.993Z,1.73
2019-03-05T13:51:25.702Z,1.57
2019-03-05T13:54:26.031Z,2.20
2019-03-05T13:57:06.600Z,1.30
2019-03-05T13:59:47.087Z,1.83
2019-03-05T14:02:17.059Z,1.70
2019-03-05T14:04:51.392Z,1.63
2019-03-05T14:07:39.533Z,1.50
2019-03-05T14:10:05.915Z,1.40
2019-03-05T14:12:32.142Z,1.63
2019-03-05T14:14:58.454Z,2.13
2019-03-05T14:17:25.457Z,1.97
2019-03-05T14:19:52.412Z,3.07
2019-03-05T14:22:18.844Z,6.37
2019-03-05T14:24:45.023Z,10.30
2019-03-05T14:27:11.262Z,5.10
2019-03-05T14:29:37.599Z,2.60
2019-03-05T14:32:04.271Z,4.70
2019-03-05T14:34:30.432Z,3.70
2019-03-05T14:36:56.540Z,3.40
2019-03-05T14:39:26.138Z,1.70
2019-03-05T14:41:52.734Z,3.40
2019-03-05T14:44:18.975Z,2.40
2019-03-05T14:46:48.458Z,1.73
2019-03-05T14:49:14.537Z,2.27
2019-03-05T14:51:40.707Z,1.80
2019-03-05T14:54:07.059Z,1.90
2019-03-05T14:56:33.125Z,2.33
2019-03-05T14:58:59.446Z,1.83
2019-03-05T15:01:25.585Z,1.90
2019-03-05T15:03:51.761Z,1.60
2019-03-05T15:06:17.882Z,3.07
2019-03-05T15:08:44.096Z,2.20
2019-03-05T15:11:10.486Z,1.77
2019-03-05T15:13:36.630Z,2.20
2019-03-05T15:16:02.891Z,1.10
2019-03-05T15:18:29.373Z,2.27
2019-03-05T15:20:55.599Z,2.30
2019-03-05T15:23:21.684Z,2.77
2019-03-05T15:25:47.881Z,2.40
2019-03-05T15:28:14.042Z,1.90
2019-03-05T15:30:40.152Z,2.50
2019-03-05T15:33:06.224Z,2.30
2019-03-05T15:35:32.322Z,3.00
2019-03-05T15:37:58.425Z,2.87
2019-03-05T15:40:24.625Z,2.17
2019-03-05T15:42:50.794Z,2.50
2019-03-05T15:45:18.698Z,2.70
2019-03-05T15:47:44.877Z,2.50
2019-03-05T15:50:13.505Z,2.80
2019-03-05T15:52:39.669Z,2.50
2019-03-05T15:55:09.035Z,3.77
2019-03-05T15:57:35.156Z,3.00
2019-03-05T16:00:04.372Z,2.83
2019-03-05T16:02:30.489Z,2.40
2019-03-05T16:04:56.601Z,5.13
2019-03-05T16:07:22.777Z,2.93
2019-03-05T16:09:50.826Z,1.83
2019-03-05T16:12:16.850Z,3.23
2019-03-05T16:14:42.922Z,2.77
2019-03-05T16:17:09.135Z,3.40
2019-03-05T16:19:35.202Z,3.30
2019-03-05T16:22:01.261Z,4.00
2019-03-05T16:24:27.378Z,3.00
2019-03-05T16:26:56.766Z,2.60
2019-03-05T16:29:21.586Z,2.67
2019-03-05T16:31:50.026Z,2.50
2019-03-05T16:34:19.357Z,2.63
2019-03-05T16:36:52.978Z,2.60
2019-03-05T16:39:27.245Z,3.10
2019-03-05T16:42:10.689Z,2.67
2019-03-05T16:44:56.690Z,2.80
2019-03-05T16:47:30.568Z,3.10
2019-03-05T16:49:58.576Z,3.00
2019-03-05T16:52:45.084Z,3.60
2019-03-05T16:55:29.724Z,2.97
2019-03-05T16:58:14.383Z,3.53
2019-03-05T17:00:51.977Z,2.77
2019-03-05T17:03:25.950Z,2.90
2019-03-05T17:05:59.694Z,3.33
2019-03-05T17:08:27.814Z,2.70
2019-03-05T17:11:02.242Z,3.50
2019-03-05T17:13:28.524Z,3.80
2019-03-05T17:15:54.786Z,3.40
2019-03-05T17:18:20.903Z,4.43
2019-03-05T17:20:48.687Z,2.83
2019-03-05T17:23:14.871Z,3.00
2019-03-05T17:25:41.016Z,3.30
2019-03-05T17:28:07.533Z,3.90
2019-03-05T17:30:33.733Z,3.63
2019-03-05T17:32:59.882Z,4.20
2019-03-05T17:35:26.028Z,4.00
2019-03-05T17:37:52.276Z,3.20
2019-03-05T17:40:18.535Z,4.83
2019-03-05T17:42:44.714Z,3.23
2019-03-05T17:45:19.597Z,3.50
2019-03-05T17:47:45.784Z,3.03
2019-03-05T17:50:12.495Z,3.77
2019-03-05T17:52:38.601Z,3.07
2019-03-05T17:55:08.424Z,2.50
2019-03-05T17:57:34.575Z,4.53
2019-03-05T18:00:00.715Z,3.83
2019-03-05T18:02:27.510Z,3.40
2019-03-05T18:04:56.718Z,3.70
2019-03-05T18:07:24.847Z,3.87
2019-03-05T18:09:50.990Z,2.93
2019-03-05T18:12:17.180Z,3.90
2019-03-05T18:14:43.417Z,2.40
2019-03-05T18:17:09.819Z,3.40
2019-03-05T18:19:36.019Z,3.33
2019-03-05T18:22:02.051Z,3.13
2019-03-05T18:24:28.173Z,3.40
2019-03-05T18:26:54.590Z,3.07
2019-03-05T18:29:20.671Z,3.43
2019-03-05T18:31:47.170Z,4.23
2019-03-05T18:34:13.234Z,3.33
2019-03-05T18:36:39.339Z,2.83
2019-03-05T18:39:06.478Z,2.50
2019-03-05T18:41:32.799Z,3.33
2019-03-05T18:43:59.052Z,3.60
2019-03-05T18:46:25.587Z,3.83
2019-03-05T18:48:51.612Z,3.67
2019-03-05T18:51:17.954Z,3.30
2019-03-05T18:53:44.114Z,4.13
2019-03-05T18:56:10.138Z,2.97
2019-03-05T18:58:36.309Z,3.57
2019-03-05T19:01:02.857Z,3.00
2019-03-05T19:03:29.024Z,3.23
2019-03-05T19:05:55.239Z,3.30
2019-03-05T19:08:21.453Z,3.03
2019-03-05T19:10:47.588Z,3.70
2019-03-05T19:13:13.797Z,4.77
2019-03-05T19:15:40.517Z,3.60
2019-03-05T19:18:06.773Z,4.80
2019-03-05T19:20:33.263Z,3.53
2019-03-05T19:23:01.231Z,3.87
2019-03-05T19:25:33.032Z,3.33
2019-03-05T19:27:59.346Z,4.07
2019-03-05T19:30:36.258Z,3.60
2019-03-05T19:33:02.601Z,3.47
2019-03-05T19:35:28.758Z,3.40
2019-03-05T19:37:54.934Z,5.57
2019-03-05T19:40:30.098Z,4.47
2019-03-05T19:42:56.623Z,4.07
2019-03-05T19:45:23.326Z,3.90
2019-03-05T19:47:49.569Z,3.80
2019-03-05T19:50:17.770Z,4.63
2019-03-05T19:52:44.087Z,3.60
2019-03-05T19:55:32.910Z,4.07
2019-03-05T19:58:13.127Z,4.43
2019-03-05T20:03:33.821Z,4.47
2019-03-05T20:06:00.139Z,4.27
2019-03-05T20:08:26.247Z,4.37
2019-03-05T20:10:52.433Z,4.93
2019-03-05T20:13:18.846Z,4.30
2019-03-05T20:15:45.106Z,5.27
2019-03-05T20:18:11.543Z,3.97
2019-03-05T20:20:37.815Z,4.40
2019-03-05T20:23:04.266Z,3.37
2019-03-05T20:25:31.094Z,4.00
2019-03-05T20:27:57.331Z,3.80
2019-03-05T20:30:24.226Z,4.80
2019-03-05T20:32:50.722Z,3.80
2019-03-05T20:35:17.359Z,4.90
2019-03-05T20:37:44.214Z,3.87
2019-03-05T20:40:18.711Z,4.60
2019-03-05T20:42:44.950Z,3.57
2019-03-05T20:45:14.232Z,4.73
2019-03-05T20:47:40.381Z,5.57
2019-03-05T20:50:09.774Z,5.20
2019-03-05T20:52:36.017Z,4.20
2019-03-05T20:55:05.981Z,4.23
2019-03-05T20:57:33.197Z,3.47
2019-03-05T20:59:59.306Z,3.87
2019-03-05T21:02:25.426Z,3.40
2019-03-05T21:04:51.709Z,6.20
2019-03-05T21:07:17.800Z,4.20
2019-03-05T21:09:44.217Z,3.30
2019-03-05T21:12:10.338Z,3.50
2019-03-05T21:14:36.569Z,4.40
2019-03-05T21:17:02.604Z,4.87
2019-03-05T21:19:28.735Z,4.60
2019-03-05T21:21:54.819Z,4.20
2019-03-05T21:24:21.191Z,4.93
2019-03-05T21:26:47.273Z,4.50
2019-03-05T21:29:13.427Z,4.00
2019-03-05T21:31:39.551Z,3.60
2019-03-05T21:34:05.680Z,3.50
2019-03-05T21:36:31.924Z,3.13
2019-03-05T21:38:58.215Z,3.80
2019-03-05T21:41:24.252Z,4.23
2019-03-05T21:43:50.292Z,3.70
2019-03-05T21:46:17.258Z,3.70
2019-03-05T21:48:43.380Z,4.00
2019-03-05T21:51:09.492Z,2.67
2019-03-05T21:53:35.599Z,4.60
2019-03-05T21:56:01.775Z,3.97
2019-03-05T21:58:27.870Z,3.17
2019-03-05T22:00:53.874Z,3.20
2019-03-05T22:03:19.934Z,3.43
2019-03-05T22:05:46.348Z,2.97
2019-03-05T22:08:12.492Z,5.13
2019-03-05T22:10:41.877Z,4.10
2019-03-05T22:13:08.054Z,4.27
2019-03-05T22:15:35.773Z,2.80
2019-03-05T22:18:01.886Z,4.57
2019-03-05T22:20:28.217Z,4.87
2019-03-05T22:22:54.548Z,3.33
2019-03-05T22:25:21.794Z,4.07
2019-03-05T22:27:48.331Z,4.00
2019-03-05T22:30:17.431Z,3.73
2019-03-05T22:32:43.890Z,3.77
2019-03-05T22:35:10.200Z,3.10
2019-03-05T22:37:36.866Z,3.97
2019-03-05T22:40:06.505Z,3.93
2019-03-05T22:42:32.672Z,4.00
2019-03-05T22:44:59.281Z,4.13
2019-03-05T22:47:25.398Z,4.00
2019-03-05T22:49:51.606Z,3.67
2019-03-05T22:52:18.001Z,3.50
2019-03-05T22:54:44.192Z,4.30
2019-03-05T22:57:10.356Z,3.70
2019-03-05T22:59:36.510Z,4.47
2019-03-05T23:02:03.541Z,4.20
2019-03-05T23:04:31.463Z,3.43
2019-03-05T23:06:57.932Z,4.53
2019-03-05T23:09:25.323Z,4.20
2019-03-05T23:11:51.663Z,4.17
2019-03-05T23:14:18.561Z,5.50
2019-03-05T23:16:46.448Z,3.93
2019-03-05T23:19:12.905Z,3.77
2019-03-05T23:21:40.223Z,4.27
2019-03-05T23:24:06.886Z,3.63
2019-03-05T23:26:33.325Z,3.73
2019-03-05T23:28:59.616Z,4.50
2019-03-05T23:31:25.964Z,6.23
2019-03-05T23:33:52.222Z,4.90
2019-03-05T23:36:18.720Z,4.20
2019-03-05T23:38:44.861Z,5.50
2019-03-05T23:41:11.074Z,5.60
2019-03-05T23:43:37.738Z,5.67
2019-03-05T23:46:04.063Z,4.90
2019-03-05T23:48:30.125Z,4.67
2019-03-05T23:50:56.495Z,5.47
2019-03-05T23:53:22.537Z,4.77
2019-03-05T23:55:48.829Z,5.00
2019-03-05T23:58:15.104Z,4.10
